createdAt,value
2018-08-18T00:00:29.608Z,63.89
2018-08-18T00:01:29.561Z,63.81
2018-08-18T00:02:29.647Z,64.08
2018-08-18T00:03:29.548Z,64.28
2018-08-18T00:04:29.572Z,64.48
2018-08-18T00:05:29.742Z,64.78
2018-08-18T00:06:29.511Z,65
2018-08-18T00:07:29.663Z,64.78
2018-08-18T00:08:29.559Z,65.11
2018-08-18T00:09:29.696Z,65.19
2018-08-18T00:10:29.697Z,65.23
2018-08-18T00:11:29.583Z,65.34
2018-08-18T00:12:29.549Z,65.47
2018-08-18T00:13:29.711Z,65.64
2018-08-18T00:14:29.813Z,65.96
2018-08-18T00:15:29.537Z,65.87
2018-08-18T00:16:30.382Z,66.3
2018-08-18T00:17:29.631Z,66.26
2018-08-18T00:18:29.536Z,66.44
2018-08-18T00:19:29.637Z,66.26
2018-08-18T00:20:29.613Z,66.44
2018-08-18T00:21:29.683Z,66.36
2018-08-18T00:22:29.664Z,66.25
2018-08-18T00:23:29.551Z,66.2
2018-08-18T00:24:29.589Z,65.85
2018-08-18T00:25:29.539Z,65.79
2018-08-18T00:26:29.583Z,66.02
2018-08-18T00:27:29.549Z,66.47
2018-08-18T00:28:29.628Z,66.76
2018-08-18T00:29:29.563Z,66.06
2018-08-18T00:30:29.573Z,66.36
2018-08-18T00:31:29.640Z,66.32
2018-08-18T00:32:29.599Z,65.88
2018-08-18T00:33:29.587Z,66.04
2018-08-18T00:34:29.625Z,65.79
2018-08-18T00:35:29.575Z,66.11
2018-08-18T00:36:29.607Z,65.67
2018-08-18T00:37:29.622Z,65.65
2018-08-18T00:38:29.570Z,65.84
2018-08-18T00:39:29.587Z,65.81
2018-08-18T00:40:29.542Z,66.35
2018-08-18T00:41:29.753Z,65.95
2018-08-18T00:42:29.703Z,65.84
2018-08-18T00:43:29.655Z,65.79
2018-08-18T00:44:29.560Z,65.87
2018-08-18T00:45:29.627Z,66.07
2018-08-18T00:46:29.581Z,66
2018-08-18T00:47:29.583Z,65.37
2018-08-18T00:48:29.592Z,65.64
2018-08-18T00:49:29.667Z,65.79
2018-08-18T00:50:29.940Z,65.54
2018-08-18T00:51:29.766Z,65.33
2018-08-18T00:52:29.573Z,65.44
2018-08-18T00:53:29.779Z,65.55
2018-08-18T00:54:29.624Z,65.99
2018-08-18T00:55:29.633Z,66.11
2018-08-18T00:56:29.782Z,66.26
2018-08-18T00:57:29.745Z,66.46
2018-08-18T00:58:29.644Z,66.76
2018-08-18T00:59:29.666Z,66.79
2018-08-18T01:00:29.623Z,67.17
2018-08-18T01:01:29.563Z,67.14
2018-08-18T01:02:29.642Z,67
2018-08-18T01:03:29.650Z,67.01
2018-08-18T01:04:29.748Z,66.86
2018-08-18T01:05:29.740Z,66.62
2018-08-18T01:06:29.670Z,66.45
2018-08-18T01:07:29.752Z,66.09
2018-08-18T01:08:29.612Z,66.13
2018-08-18T01:09:30.313Z,66.03
2018-08-18T01:10:29.698Z,65.77
2018-08-18T01:11:30.575Z,65.39
2018-08-18T01:12:30.853Z,65.88
2018-08-18T01:13:29.728Z,65.63
2018-08-18T01:14:30.313Z,65.87
2018-08-18T01:15:29.972Z,65.92
2018-08-18T01:16:29.642Z,65.89
2018-08-18T01:17:29.772Z,65.83
2018-08-18T01:18:29.846Z,66.14
2018-08-18T01:19:29.777Z,66.27
2018-08-18T01:20:29.718Z,66.17
2018-08-18T01:21:30.279Z,65.87
2018-08-18T01:22:29.989Z,66.05
2018-08-18T01:23:29.842Z,66.14
2018-08-18T01:24:29.719Z,66.02
2018-08-18T01:25:29.964Z,66.19
2018-08-18T01:26:29.646Z,65.69
2018-08-18T01:27:29.665Z,66.14
2018-08-18T01:28:29.679Z,66.17
2018-08-18T01:29:29.709Z,65.75
2018-08-18T01:30:29.667Z,65.94
2018-08-18T01:31:29.639Z,65.6
2018-08-18T01:32:29.671Z,65.53
2018-08-18T01:33:29.617Z,65.29
2018-08-18T01:34:29.868Z,65.44
2018-08-18T01:35:29.811Z,65.44
2018-08-18T01:36:29.656Z,65.33
2018-08-18T01:37:29.690Z,65.33
2018-08-18T01:38:29.657Z,64.87
2018-08-18T01:39:29.859Z,64.95
2018-08-18T01:40:29.737Z,64.91
2018-08-18T01:41:30.447Z,64.78
2018-08-18T01:42:29.775Z,64.75
2018-08-18T01:43:29.758Z,64.84
2018-08-18T01:44:29.658Z,64.51
2018-08-18T01:45:29.638Z,64.81
2018-08-18T01:46:29.704Z,64.88
2018-08-18T01:47:29.679Z,65.24
2018-08-18T01:48:29.705Z,65.06
2018-08-18T01:49:29.696Z,65.2
2018-08-18T01:50:29.631Z,65.08
2018-08-18T01:51:29.669Z,64.9
2018-08-18T01:52:29.686Z,64.73
2018-08-18T01:53:29.646Z,64.8
2018-08-18T01:54:29.771Z,64.81
2018-08-18T01:55:29.647Z,64.83
2018-08-18T01:56:29.694Z,64.53
2018-08-18T01:57:29.666Z,64.57
2018-08-18T01:58:29.642Z,64.77
2018-08-18T01:59:29.659Z,64.75
2018-08-18T02:00:29.664Z,64.57
2018-08-18T02:01:29.719Z,64.77
2018-08-18T02:02:29.709Z,64.84
2018-08-18T02:03:29.661Z,64.85
2018-08-18T02:04:29.675Z,65.13
2018-08-18T02:05:29.665Z,64.93
2018-08-18T02:06:29.661Z,64.97
2018-08-18T02:07:29.669Z,64.87
2018-08-18T02:08:29.729Z,65.3
2018-08-18T02:09:29.704Z,64.86
2018-08-18T02:10:29.647Z,65.14
2018-08-18T02:11:29.667Z,65.4
2018-08-18T02:12:29.751Z,65.38
2018-08-18T02:13:29.684Z,65.4
2018-08-18T02:14:29.743Z,65.3
2018-08-18T02:15:29.757Z,65.45
2018-08-18T02:16:29.888Z,65.39
2018-08-18T02:17:29.826Z,65.13
2018-08-18T02:18:30.179Z,65.25
2018-08-18T02:19:29.693Z,64.86
2018-08-18T02:20:29.691Z,65.64
2018-08-18T02:21:29.790Z,65.37
2018-08-18T02:22:29.758Z,65.24
2018-08-18T02:23:29.751Z,65.91
2018-08-18T02:24:29.683Z,65.36
2018-08-18T02:25:29.714Z,65.43
2018-08-18T02:26:29.767Z,65.81
2018-08-18T02:27:29.735Z,65.56
2018-08-18T02:28:31.529Z,65.67
2018-08-18T02:29:29.908Z,66.01
2018-08-18T02:30:29.789Z,66.05
2018-08-18T02:31:29.707Z,65.81
2018-08-18T02:32:29.743Z,65.49
2018-08-18T02:33:29.786Z,65.6
2018-08-18T02:34:29.810Z,66.01
2018-08-18T02:35:29.747Z,65.68
2018-08-18T02:36:29.729Z,65.43
2018-08-18T02:37:29.758Z,65.7
2018-08-18T02:38:29.726Z,65.85
2018-08-18T02:39:29.712Z,66.06
2018-08-18T02:40:30.002Z,65.83
2018-08-18T02:41:29.728Z,66.09
2018-08-18T02:42:29.724Z,66.29
2018-08-18T02:43:29.889Z,66.45
2018-08-18T02:44:29.945Z,66.69
2018-08-18T02:45:30.991Z,66.88
2018-08-18T02:46:29.791Z,66.82
2018-08-18T02:47:29.863Z,66.91
2018-08-18T02:48:29.777Z,66.67
2018-08-18T02:49:29.783Z,67.03
2018-08-18T02:50:29.906Z,66.71
2018-08-18T02:51:29.781Z,66.73
2018-08-18T02:52:29.729Z,68.04
2018-08-18T02:53:29.808Z,67.76
2018-08-18T02:54:29.815Z,67.37
2018-08-18T02:55:30.750Z,67.65
2018-08-18T02:56:29.926Z,67.48
2018-08-18T02:57:29.771Z,67.48
2018-08-18T02:58:29.714Z,67.77
2018-08-18T02:59:29.749Z,67.19
2018-08-18T03:00:30.444Z,67.38
2018-08-18T03:01:29.745Z,67.63
2018-08-18T03:02:30.083Z,67.61
2018-08-18T03:03:29.711Z,67.61
2018-08-18T03:04:29.752Z,67.2
2018-08-18T03:05:29.864Z,67.77
2018-08-18T03:06:29.735Z,67.8
2018-08-18T03:07:29.798Z,67.47
2018-08-18T03:08:29.787Z,67.83
2018-08-18T03:09:29.813Z,67.77
2018-08-18T03:10:29.791Z,67.89
2018-08-18T03:11:29.812Z,67.88
2018-08-18T03:12:29.733Z,67.65
2018-08-18T03:13:29.861Z,67.97
2018-08-18T03:14:29.786Z,67.76
2018-08-18T03:15:29.767Z,67.79
2018-08-18T03:16:29.730Z,67.66
2018-08-18T03:17:29.767Z,67.54
2018-08-18T03:18:29.788Z,67.58
2018-08-18T03:19:29.758Z,67.72
2018-08-18T03:20:29.757Z,67.92
2018-08-18T03:21:29.759Z,67.76
2018-08-18T03:22:29.763Z,67.62
2018-08-18T03:23:29.743Z,67.87
2018-08-18T03:24:29.751Z,67.98
2018-08-18T03:25:29.773Z,67.77
2018-08-18T03:26:29.880Z,67.47
2018-08-18T03:27:30.016Z,67.56
2018-08-18T03:28:29.884Z,67.96
2018-08-18T03:29:29.782Z,67.75
2018-08-18T03:30:30.072Z,67.79
2018-08-18T03:31:29.778Z,67.46
2018-08-18T03:32:29.801Z,68.04
2018-08-18T03:33:29.782Z,68.14
2018-08-18T03:34:29.907Z,67.96
2018-08-18T03:35:29.878Z,68.14
2018-08-18T03:36:29.848Z,67.61
2018-08-18T03:37:29.788Z,67.94
2018-08-18T03:38:30.113Z,68.2
2018-08-18T03:39:29.868Z,67.94
2018-08-18T03:40:29.992Z,67.54
2018-08-18T03:41:30.019Z,68.26
2018-08-18T03:42:30.330Z,67.58
2018-08-18T03:43:29.983Z,67.29
2018-08-18T03:44:29.838Z,67.85
2018-08-18T03:45:29.771Z,67.6
2018-08-18T03:46:29.945Z,67.75
2018-08-18T03:47:30.459Z,67.39
2018-08-18T03:48:29.829Z,68.36
2018-08-18T03:49:29.808Z,68.22
2018-08-18T03:50:29.788Z,68.08
2018-08-18T03:51:29.766Z,67.42
2018-08-18T03:52:30.152Z,67.59
2018-08-18T03:53:29.904Z,67.62
2018-08-18T03:54:29.873Z,67.94
2018-08-18T03:55:29.928Z,67.42
2018-08-18T03:56:29.937Z,67.76
2018-08-18T03:57:29.919Z,67.77
2018-08-18T03:58:29.832Z,67.54
2018-08-18T03:59:30.438Z,67.5
2018-08-18T04:00:29.834Z,67.58
2018-08-18T04:01:30.013Z,67.61
2018-08-18T04:02:30.232Z,67.19
2018-08-18T04:03:29.822Z,67.85
2018-08-18T04:04:29.867Z,67.66
2018-08-18T04:05:30.282Z,67.8
2018-08-18T04:06:29.874Z,67.91
2018-08-18T04:07:29.881Z,67.43
2018-08-18T04:08:30.004Z,68.53
2018-08-18T04:09:29.823Z,68.42
2018-08-18T04:10:29.905Z,68.72
2018-08-18T04:11:29.869Z,69.08
2018-08-18T04:12:29.813Z,68.78
2018-08-18T04:13:29.822Z,68.87
2018-08-18T04:14:29.999Z,68.95
2018-08-18T04:15:29.891Z,68.91
2018-08-18T04:16:30.149Z,69.14
2018-08-18T04:17:30.208Z,68.95
2018-08-18T04:18:30.158Z,69.15
2018-08-18T04:19:29.972Z,68.91
2018-08-18T04:20:29.993Z,68.91
2018-08-18T04:21:29.975Z,68.49
2018-08-18T04:22:29.828Z,69.03
2018-08-18T04:23:30.350Z,69.39
2018-08-18T04:24:29.857Z,69.2
2018-08-18T04:25:30.155Z,69.16
2018-08-18T04:26:30.275Z,68.86
2018-08-18T04:27:29.866Z,69.13
2018-08-18T04:28:29.866Z,68.66
2018-08-18T04:29:29.817Z,68.71
2018-08-18T04:30:29.806Z,68.38
2018-08-18T04:31:30.005Z,68.75
2018-08-18T04:32:29.883Z,68.37
2018-08-18T04:33:29.890Z,68.43
2018-08-18T04:34:29.965Z,68.31
2018-08-18T04:35:30.301Z,68.69
2018-08-18T04:36:29.884Z,68.58
2018-08-18T04:37:29.968Z,68.47
2018-08-18T04:38:29.927Z,68.68
2018-08-18T04:39:29.932Z,69.33
2018-08-18T04:40:29.876Z,68.83
2018-08-18T04:41:30.021Z,68.74
2018-08-18T04:42:29.887Z,68.88
2018-08-18T04:43:29.859Z,68.64
2018-08-18T04:44:29.910Z,69.25
2018-08-18T04:45:29.874Z,69.79
2018-08-18T04:46:29.919Z,69.73
2018-08-18T04:47:29.888Z,69.82
2018-08-18T04:48:30.031Z,70.5
2018-08-18T04:49:29.926Z,70.7
2018-08-18T04:50:30.551Z,71.07
2018-08-18T04:51:29.968Z,70.59
2018-08-18T04:52:30.317Z,70.78
2018-08-18T04:53:29.853Z,71.55
2018-08-18T04:54:30.138Z,71.58
2018-08-18T04:55:30.034Z,70.8
2018-08-18T04:56:30.129Z,70.73
2018-08-18T04:57:30.007Z,70.97
2018-08-18T04:58:29.873Z,70.7
2018-08-18T04:59:30.611Z,71
2018-08-18T05:00:29.895Z,70.87
2018-08-18T05:01:29.848Z,70.53
2018-08-18T05:02:30.003Z,70.5
2018-08-18T05:03:30.509Z,70.64
2018-08-18T05:04:29.873Z,70.58
2018-08-18T05:05:29.877Z,70.48
2018-08-18T05:06:29.920Z,70.8
2018-08-18T05:07:37.057Z,70.67
2018-08-18T05:08:30.699Z,70.85
2018-08-18T05:09:30.212Z,71.08
2018-08-18T05:10:30.019Z,71
2018-08-18T05:11:30.072Z,70.55
2018-08-18T05:12:30.008Z,70.71
2018-08-18T05:13:30.026Z,70.64
2018-08-18T05:14:30.139Z,70.82
2018-08-18T05:15:29.995Z,71.25
2018-08-18T05:16:29.923Z,71.43
2018-08-18T05:17:30.161Z,71.51
2018-08-18T05:18:30.005Z,72.3
2018-08-18T05:19:29.890Z,72.3
2018-08-18T05:20:30.103Z,72.26
2018-08-18T05:21:29.896Z,71.93
2018-08-18T05:22:30.032Z,71.59
2018-08-18T05:23:30.767Z,71.61
2018-08-18T05:24:30.032Z,71.93
2018-08-18T05:25:29.950Z,71.38
2018-08-18T05:26:30.001Z,71.55
2018-08-18T05:27:29.934Z,71.47
2018-08-18T05:28:30.064Z,71.75
2018-08-18T05:29:29.956Z,71.18
2018-08-18T05:30:30.047Z,71.66
2018-08-18T05:31:30.106Z,71.38
2018-08-18T05:32:29.956Z,71.54
2018-08-18T05:33:30.082Z,70.96
2018-08-18T05:34:29.955Z,71.15
2018-08-18T05:35:30.056Z,71.07
2018-08-18T05:36:30.447Z,70.93
2018-08-18T05:37:30.108Z,71.26
2018-08-18T05:38:30.058Z,70.91
2018-08-18T05:39:29.999Z,71.18
2018-08-18T05:40:29.928Z,71.11
2018-08-18T05:41:30.035Z,71.36
2018-08-18T05:42:30.071Z,71.45
2018-08-18T05:43:30.194Z,71.05
2018-08-18T05:44:30.008Z,71.13
2018-08-18T05:45:29.917Z,70.98
2018-08-18T05:46:29.949Z,71.03
2018-08-18T05:47:30.111Z,70.93
2018-08-18T05:48:29.948Z,70.9
2018-08-18T05:49:29.919Z,71.26
2018-08-18T05:50:29.972Z,70.53
2018-08-18T05:51:30.008Z,71.42
2018-08-18T05:52:29.936Z,71.06
2018-08-18T05:53:29.911Z,71.53
2018-08-18T05:54:29.966Z,71.43
2018-08-18T05:55:29.980Z,71.84
2018-08-18T05:56:29.933Z,72
2018-08-18T05:57:30.013Z,71.84
2018-08-18T05:58:29.977Z,71.63
2018-08-18T05:59:29.940Z,71.39
2018-08-18T06:00:29.933Z,71.71
2018-08-18T06:01:29.962Z,71.38
2018-08-18T06:02:29.945Z,71.93
2018-08-18T06:03:29.999Z,71.12
2018-08-18T06:04:29.962Z,70.97
2018-08-18T06:05:29.967Z,71.55
2018-08-18T06:06:29.963Z,71.74
2018-08-18T06:07:29.979Z,72.38
2018-08-18T06:08:30.026Z,71.97
2018-08-18T06:09:30.014Z,71.7
2018-08-18T06:10:29.951Z,71.85
2018-08-18T06:11:29.971Z,71.88
2018-08-18T06:12:29.977Z,72
2018-08-18T06:13:30.070Z,72
2018-08-18T06:14:30.017Z,71.81
2018-08-18T06:15:29.982Z,71.52
2018-08-18T06:16:29.975Z,72.39
2018-08-18T06:17:30.185Z,71.81
2018-08-18T06:18:30.044Z,71.02
2018-08-18T06:19:30.100Z,71.5
2018-08-18T06:20:30.109Z,71.06
2018-08-18T06:21:29.983Z,71.1
2018-08-18T06:22:29.972Z,70.63
2018-08-18T06:23:29.965Z,71
2018-08-18T06:24:29.948Z,70.92
2018-08-18T06:25:29.995Z,71.25
2018-08-18T06:26:30.020Z,70.84
2018-08-18T06:27:30.027Z,71.28
2018-08-18T06:28:30.015Z,71.45
2018-08-18T06:29:29.994Z,71.41
2018-08-18T06:30:29.992Z,71.62
2018-08-18T06:31:29.940Z,71.26
2018-08-18T06:32:30.089Z,71.24
2018-08-18T06:33:30.184Z,70.88
2018-08-18T06:34:30.204Z,71
2018-08-18T06:35:29.991Z,70.96
2018-08-18T06:36:30.022Z,71.21
2018-08-18T06:37:29.980Z,71.28
2018-08-18T06:38:30.010Z,71.49
2018-08-18T06:39:30.135Z,70.97
2018-08-18T06:40:30.011Z,71.13
2018-08-18T06:41:30.355Z,70.96
2018-08-18T06:42:30.020Z,71.04
2018-08-18T06:43:30.202Z,70.8
2018-08-18T06:44:30.001Z,70.58
2018-08-18T06:45:30.067Z,70.36
2018-08-18T06:46:30.049Z,70.25
2018-08-18T06:47:30.163Z,70.16
2018-08-18T06:48:30.065Z,69.94
2018-08-18T06:49:30.122Z,69.77
2018-08-18T06:50:30.045Z,69.75
2018-08-18T06:51:30.092Z,69.51
2018-08-18T06:52:30.196Z,69.67
2018-08-18T06:53:30.002Z,69.68
2018-08-18T06:54:30.661Z,69.55
2018-08-18T06:55:30.072Z,69.79
2018-08-18T06:56:30.023Z,69.71
2018-08-18T06:57:30.131Z,69.72
2018-08-18T06:58:30.049Z,69.13
2018-08-18T06:59:30.191Z,69.43
2018-08-18T07:00:30.060Z,69.08
2018-08-18T07:01:30.007Z,68.81
2018-08-18T07:02:30.039Z,69.12
2018-08-18T07:03:30.013Z,68.94
2018-08-18T07:04:30.085Z,68.86
2018-08-18T07:05:30.026Z,68.24
2018-08-18T07:06:30.056Z,68.3
2018-08-18T07:07:30.011Z,68.27
2018-08-18T07:08:30.992Z,68.37
2018-08-18T07:09:30.036Z,67.9
2018-08-18T07:10:30.022Z,67.51
2018-08-18T07:11:30.124Z,67.44
2018-08-18T07:12:30.009Z,67.45
2018-08-18T07:13:30.061Z,67.36
2018-08-18T07:14:30.064Z,67.3
2018-08-18T07:15:30.036Z,67.09
2018-08-18T07:16:30.011Z,66.87
2018-08-18T07:17:30.072Z,66.87
2018-08-18T07:18:30.102Z,67.03
2018-08-18T07:19:30.465Z,67.12
2018-08-18T07:20:30.013Z,67.13
2018-08-18T07:21:30.035Z,67.08
2018-08-18T07:22:30.039Z,66.76
2018-08-18T07:23:30.048Z,66.68
2018-08-18T07:24:30.046Z,66.62
2018-08-18T07:25:30.095Z,66.54
2018-08-18T07:26:30.062Z,65.84
2018-08-18T07:27:30.079Z,66.42
2018-08-18T07:28:30.429Z,66.14
2018-08-18T07:29:30.228Z,65.9
2018-08-18T07:30:30.082Z,65.39
2018-08-18T07:31:30.066Z,64.96
2018-08-18T07:32:30.073Z,64.93
2018-08-18T07:33:30.072Z,65
2018-08-18T07:34:30.056Z,64.84
2018-08-18T07:35:30.181Z,65.1
2018-08-18T07:36:30.081Z,64.91
2018-08-18T07:37:30.364Z,64.6
2018-08-18T07:38:30.060Z,64.61
2018-08-18T07:39:30.083Z,64.42
2018-08-18T07:40:30.043Z,64.19
2018-08-18T07:41:30.454Z,63.46
2018-08-18T07:42:30.082Z,63.47
2018-08-18T07:43:30.108Z,63.61
2018-08-18T07:44:30.061Z,63.73
2018-08-18T07:45:30.058Z,63.67
2018-08-18T07:46:30.512Z,63.51
2018-08-18T07:47:30.098Z,63.55
2018-08-18T07:48:30.120Z,63.51
2018-08-18T07:49:30.098Z,63.33
2018-08-18T07:50:30.289Z,63.2
2018-08-18T07:51:30.100Z,63.45
2018-08-18T07:52:30.091Z,63.5
2018-08-18T07:53:30.712Z,63.33
2018-08-18T07:54:30.093Z,63.58
2018-08-18T07:55:30.110Z,63.38
2018-08-18T07:56:30.107Z,63.25
2018-08-18T07:57:30.140Z,63.37
2018-08-18T07:58:30.177Z,63.01
2018-08-18T07:59:30.100Z,62.61
2018-08-18T08:00:30.110Z,62.31
2018-08-18T08:01:30.312Z,62.53
2018-08-18T08:02:30.117Z,62.23
2018-08-18T08:03:30.186Z,62.09
2018-08-18T08:04:30.102Z,62.37
2018-08-18T08:05:30.301Z,62.38
2018-08-18T08:06:30.117Z,62.19
2018-08-18T08:07:30.235Z,62.21
2018-08-18T08:08:30.362Z,61.87
2018-08-18T08:09:30.069Z,61.97
2018-08-18T08:10:30.122Z,61.83
2018-08-18T08:11:30.089Z,61.91
2018-08-18T08:12:30.636Z,61.56
2018-08-18T08:13:30.089Z,61.57
2018-08-18T08:14:30.193Z,61.82
2018-08-18T08:15:30.107Z,61.79
2018-08-18T08:16:30.118Z,61.37
2018-08-18T08:17:30.111Z,61.6
2018-08-18T08:18:30.175Z,61.4
2018-08-18T08:19:30.134Z,61.39
2018-08-18T08:20:30.180Z,61.14
2018-08-18T08:21:30.112Z,61.1
2018-08-18T08:22:30.169Z,61.28
2018-08-18T08:23:30.239Z,61.36
2018-08-18T08:24:30.176Z,60.9
2018-08-18T08:25:30.124Z,61.11
2018-08-18T08:26:30.171Z,60.44
2018-08-18T08:27:30.138Z,60.38
2018-08-18T08:28:30.173Z,60.58
2018-08-18T08:29:30.383Z,60.04
2018-08-18T08:30:30.108Z,60.29
2018-08-18T08:31:30.152Z,59.88
2018-08-18T08:32:30.105Z,60.11
2018-08-18T08:33:30.116Z,59.86
2018-08-18T08:34:30.099Z,59.47
2018-08-18T08:35:30.296Z,59.62
2018-08-18T08:36:30.124Z,60.01
2018-08-18T08:37:30.113Z,60.24
2018-08-18T08:38:30.151Z,59.67
2018-08-18T08:39:30.139Z,59.69
2018-08-18T08:40:30.172Z,59.9
2018-08-18T08:41:30.133Z,59.53
2018-08-18T08:42:30.141Z,59.61
2018-08-18T08:43:30.183Z,59.2
2018-08-18T08:44:30.449Z,59.27
2018-08-18T08:45:30.105Z,58.75
2018-08-18T08:46:30.118Z,58.82
2018-08-18T08:47:30.161Z,58.87
2018-08-18T08:48:30.248Z,58.81
2018-08-18T08:49:30.151Z,58.05
2018-08-18T08:50:30.237Z,58.19
2018-08-18T08:51:30.262Z,58.29
2018-08-18T08:52:30.143Z,58.18
2018-08-18T08:53:30.151Z,58.3
2018-08-18T08:54:30.200Z,58.16
2018-08-18T08:55:30.173Z,58.12
2018-08-18T08:56:30.212Z,57.84
2018-08-18T08:57:30.150Z,57.91
2018-08-18T08:58:30.231Z,57.86
2018-08-18T08:59:30.249Z,57.87
2018-08-18T09:00:30.167Z,57.28
2018-08-18T09:01:30.127Z,57.37
2018-08-18T09:02:30.151Z,57.36
2018-08-18T09:03:30.143Z,57.16
2018-08-18T09:04:30.288Z,57
2018-08-18T09:05:30.144Z,57.36
2018-08-18T09:06:30.159Z,56.89
2018-08-18T09:07:30.280Z,57.1
2018-08-18T09:08:30.161Z,56.98
2018-08-18T09:09:30.217Z,57.1
2018-08-18T09:10:30.225Z,57.39
2018-08-18T09:11:30.183Z,57.21
2018-08-18T09:12:30.166Z,57.21
2018-08-18T09:13:30.213Z,57.16
2018-08-18T09:14:30.220Z,57.46
2018-08-18T09:15:30.431Z,56.97
2018-08-18T09:16:30.311Z,56.86
2018-08-18T09:17:30.229Z,56.92
2018-08-18T09:18:30.141Z,56.83
2018-08-18T09:19:30.230Z,56.85
2018-08-18T09:20:30.840Z,56.47
2018-08-18T09:21:30.472Z,56.13
2018-08-18T09:22:30.216Z,56.15
2018-08-18T09:23:30.309Z,55.98
2018-08-18T09:24:30.285Z,55.84
2018-08-18T09:25:30.470Z,55.71
2018-08-18T09:26:30.757Z,55.92
2018-08-18T09:27:30.356Z,55.99
2018-08-18T09:28:30.208Z,55.74
2018-08-18T09:29:30.197Z,55.39
2018-08-18T09:30:30.377Z,55.3
2018-08-18T09:31:30.297Z,55.69
2018-08-18T09:32:30.254Z,55.59
2018-08-18T09:33:30.237Z,55.66
2018-08-18T09:34:30.522Z,55.03
2018-08-18T09:35:30.378Z,55.03
2018-08-18T09:36:30.241Z,54.97
2018-08-18T09:37:30.235Z,55.21
2018-08-18T09:38:30.243Z,54.97
2018-08-18T09:39:30.265Z,55.04
2018-08-18T09:40:30.306Z,54.99
2018-08-18T09:41:30.299Z,54.85
2018-08-18T09:42:30.275Z,54.48
2018-08-18T09:43:30.260Z,54.71
2018-08-18T09:44:30.293Z,55.09
2018-08-18T09:45:31.475Z,54.93
2018-08-18T09:46:38.603Z,55.16
2018-08-18T09:47:31.045Z,55.08
2018-08-18T09:48:30.253Z,54.94
2018-08-18T09:49:30.404Z,54.94
2018-08-18T09:50:30.225Z,54.62
2018-08-18T09:51:30.259Z,54.51
2018-08-18T09:52:30.258Z,54.34
2018-08-18T09:53:30.417Z,53.98
2018-08-18T09:54:30.240Z,53.99
2018-08-18T09:55:30.237Z,54.01
2018-08-18T09:56:30.255Z,54.3
2018-08-18T09:57:30.265Z,54.5
2018-08-18T09:58:30.284Z,54.22
2018-08-18T09:59:30.492Z,53.88
2018-08-18T10:00:30.291Z,53.85
2018-08-18T10:01:30.235Z,54.04
2018-08-18T10:02:30.628Z,54.11
2018-08-18T10:03:30.241Z,53.96
2018-08-18T10:04:30.321Z,54.14
2018-08-18T10:05:30.340Z,53.99
2018-08-18T10:06:30.597Z,53.89
2018-08-18T10:07:30.289Z,54.13
2018-08-18T10:08:30.241Z,53.89
2018-08-18T10:09:30.537Z,53.58
2018-08-18T10:10:30.237Z,53.32
2018-08-18T10:11:30.282Z,53.78
2018-08-18T10:12:30.254Z,53.02
2018-08-18T10:13:30.215Z,53.21
2018-08-18T10:14:30.404Z,53.21
2018-08-18T10:15:30.290Z,52.97
2018-08-18T10:16:30.304Z,53.08
2018-08-18T10:17:30.368Z,52.82
2018-08-18T10:18:30.266Z,53.24
2018-08-18T10:19:30.470Z,53.14
2018-08-18T10:20:31.129Z,53.13
2018-08-18T10:21:31.386Z,52.8
2018-08-18T10:22:30.388Z,52.68
2018-08-18T10:23:30.278Z,52.49
2018-08-18T10:24:31.660Z,52.24
2018-08-18T10:25:32.147Z,52.4
2018-08-18T10:26:30.278Z,52.32
2018-08-18T10:27:30.285Z,52.39
2018-08-18T10:28:30.356Z,52.06
2018-08-18T10:29:30.402Z,52.65
2018-08-18T10:30:30.334Z,52.64
2018-08-18T10:31:30.548Z,52.45
2018-08-18T10:32:30.431Z,52.44
2018-08-18T10:33:30.339Z,51.95
2018-08-18T10:34:30.426Z,51.68
2018-08-18T10:35:30.314Z,51.72
2018-08-18T10:36:30.518Z,51.49
2018-08-18T10:37:30.370Z,51.19
2018-08-18T10:38:30.309Z,51.16
2018-08-18T10:39:30.534Z,51.29
2018-08-18T10:40:30.395Z,50.89
2018-08-18T10:41:30.456Z,51.16
2018-08-18T10:42:30.489Z,51.37
2018-08-18T10:43:30.301Z,51.02
2018-08-18T10:44:30.513Z,50.55
2018-08-18T10:45:30.346Z,50.43
2018-08-18T10:46:30.393Z,50.57
2018-08-18T10:47:30.627Z,50.1
2018-08-18T10:48:30.403Z,50.43
2018-08-18T10:49:30.401Z,49.99
2018-08-18T10:50:30.410Z,49.34
2018-08-18T10:51:30.762Z,49.39
2018-08-18T10:52:30.333Z,49.68
2018-08-18T10:53:30.459Z,49.88
2018-08-18T10:54:30.437Z,50.09
2018-08-18T10:55:30.453Z,49.42
2018-08-18T10:56:30.362Z,49.36
2018-08-18T10:57:30.571Z,49.17
2018-08-18T10:58:30.572Z,49.45
2018-08-18T10:59:30.487Z,48.91
2018-08-18T11:00:30.488Z,49.42
2018-08-18T11:01:30.493Z,49.2
2018-08-18T11:02:31.092Z,48.94
2018-08-18T11:03:30.402Z,49.2
2018-08-18T11:04:33.999Z,49.15
2018-08-18T11:05:30.324Z,48.95
2018-08-18T11:06:30.580Z,49.4
2018-08-18T11:07:30.431Z,49.34
2018-08-18T11:08:30.646Z,49.07
2018-08-18T11:09:30.401Z,48.4
2018-08-18T11:10:30.456Z,48.33
2018-08-18T11:11:30.570Z,48.5
2018-08-18T11:12:30.327Z,48.56
2018-08-18T11:13:30.478Z,48.72
2018-08-18T11:14:30.478Z,48.82
2018-08-18T11:15:30.492Z,48.5
2018-08-18T11:16:30.489Z,48.46
2018-08-18T11:17:30.410Z,48.76
2018-08-18T11:18:32.681Z,48.68
2018-08-18T11:19:30.316Z,48.67
2018-08-18T11:20:30.556Z,48.42
2018-08-18T11:21:30.526Z,48.39
2018-08-18T11:22:30.481Z,48.49
2018-08-18T11:23:30.539Z,48.12
2018-08-18T11:24:30.550Z,48.14
2018-08-18T11:25:30.385Z,48.44
2018-08-18T11:26:30.448Z,47.91
2018-08-18T11:27:30.567Z,47.61
2018-08-18T11:28:31.033Z,47.57
2018-08-18T11:29:30.349Z,47.54
2018-08-18T11:30:31.212Z,47.28
2018-08-18T11:31:30.492Z,47.53
2018-08-18T11:32:30.418Z,47.23
2018-08-18T11:33:34.022Z,47.24
2018-08-18T11:34:30.399Z,47.14
2018-08-18T11:35:31.650Z,47.02
2018-08-18T11:36:30.350Z,47.34
2018-08-18T11:37:30.638Z,46.86
2018-08-18T11:38:30.543Z,46.94
2018-08-18T11:39:30.354Z,47.17
2018-08-18T11:40:30.459Z,47.14
2018-08-18T11:41:30.769Z,46.92
2018-08-18T11:42:30.435Z,46.62
2018-08-18T11:43:30.372Z,46.59
2018-08-18T11:44:30.469Z,46.63
2018-08-18T11:45:30.386Z,46.92
2018-08-18T11:46:30.357Z,46.69
2018-08-18T11:47:30.735Z,46.64
2018-08-18T11:48:30.437Z,46.73
2018-08-18T11:49:30.378Z,46.49
2018-08-18T11:50:30.640Z,46.32
2018-08-18T11:51:30.388Z,46.41
2018-08-18T11:52:30.549Z,46.97
2018-08-18T11:53:30.567Z,46.72
2018-08-18T11:54:30.380Z,46.74
2018-08-18T11:55:30.526Z,46.5
2018-08-18T11:56:30.669Z,46.58
2018-08-18T11:57:30.392Z,46.12
2018-08-18T11:58:30.517Z,45.96
2018-08-18T11:59:31.360Z,45.75
2018-08-18T12:00:30.431Z,45.69
2018-08-18T12:01:30.382Z,45.51
2018-08-18T12:02:30.422Z,45.19
2018-08-18T12:03:30.424Z,45.28
2018-08-18T12:04:30.401Z,45.17
2018-08-18T12:05:30.629Z,44.97
2018-08-18T12:06:30.653Z,44.95
2018-08-18T12:07:30.524Z,45.14
2018-08-18T12:08:31.506Z,45.21
2018-08-18T12:09:30.405Z,45.13
2018-08-18T12:10:30.850Z,45.15
2018-08-18T12:11:30.425Z,45.07
2018-08-18T12:12:30.395Z,44.94
2018-08-18T12:13:30.500Z,45
2018-08-18T12:14:30.470Z,44.67
2018-08-18T12:15:30.673Z,45.22
2018-08-18T12:16:30.410Z,45.14
2018-08-18T12:17:30.505Z,45.04
2018-08-18T12:18:30.520Z,45.1
2018-08-18T12:19:30.486Z,44.94
2018-08-18T12:20:31.174Z,44.7
2018-08-18T12:21:30.399Z,44.55
2018-08-18T12:22:30.718Z,45.02
2018-08-18T12:23:30.753Z,45.48
2018-08-18T12:24:30.481Z,44.88
2018-08-18T12:25:30.504Z,44.83
2018-08-18T12:26:30.583Z,44.8
2018-08-18T12:27:30.607Z,44.62
2018-08-18T12:28:31.088Z,44.81
2018-08-18T12:29:31.116Z,45.05
2018-08-18T12:30:30.697Z,44.36
2018-08-18T12:31:30.470Z,43.81
2018-08-18T12:32:31.895Z,43.67
2018-08-18T12:33:30.509Z,44.1
2018-08-18T12:34:30.780Z,44.27
2018-08-18T12:35:30.498Z,44.31
2018-08-18T12:36:31.039Z,43.98
2018-08-18T12:37:32.064Z,43.77
2018-08-18T12:38:30.467Z,43.91
2018-08-18T12:39:30.443Z,43.99
2018-08-18T12:40:30.586Z,43.49
2018-08-18T12:41:30.772Z,43.44
2018-08-18T12:42:30.595Z,43.64
2018-08-18T12:43:30.836Z,43.44
2018-08-18T12:44:30.507Z,43.54
2018-08-18T12:45:30.535Z,43.54
2018-08-18T12:46:30.428Z,43.39
2018-08-18T12:47:30.440Z,43.65
2018-08-18T12:48:30.613Z,43.65
2018-08-18T12:49:30.650Z,43.75
2018-08-18T12:50:30.426Z,43.91
2018-08-18T12:51:30.452Z,43.44
2018-08-18T12:52:30.451Z,43.09
2018-08-18T12:53:30.457Z,42.93
2018-08-18T12:54:30.658Z,42.87
2018-08-18T12:55:30.596Z,42.83
2018-08-18T12:56:30.566Z,43.14